createdAt,value
2018-12-24T00:00:28.491Z,55.9
2018-12-24T00:01:17.990Z,55.9
2018-12-24T00:02:08.070Z,55.9
2018-12-24T00:02:58.920Z,55.8
2018-12-24T00:03:48.478Z,55.8
2018-12-24T00:04:38.207Z,55.8
2018-12-24T00:05:29.083Z,55.8
2018-12-24T00:06:18.625Z,55.8
2018-12-24T00:07:08.700Z,55.8
2018-12-24T00:07:59.057Z,55.8
2018-12-24T00:08:48.793Z,55.8
2018-12-24T00:09:39.117Z,55.8
2018-12-24T00:10:29.430Z,55.8
2018-12-24T00:11:19.227Z,55.8
2018-12-24T00:12:11.905Z,55.8
2018-12-24T00:12:59.069Z,55.8
2018-12-24T00:13:49.424Z,55.8
2018-12-24T00:14:39.457Z,55.8
2018-12-24T00:32:44.555Z,55.6
2018-12-24T00:33:33.806Z,55.6
2018-12-24T00:34:24.146Z,55.6
2018-12-24T00:35:14.491Z,55.6
2018-12-24T00:36:04.270Z,55.6
2018-12-24T00:36:54.328Z,55.6
2018-12-24T00:37:44.676Z,55.6
2018-12-24T00:38:34.203Z,55.6
2018-12-24T00:39:24.493Z,55.6
2018-12-24T00:40:14.790Z,55.5
2018-12-24T00:41:04.436Z,55.5
2018-12-24T00:41:54.648Z,55.5
2018-12-24T00:42:45.278Z,55.5
2018-12-24T00:43:35.036Z,55.5
2018-12-24T00:44:24.808Z,55.5
2018-12-24T00:45:14.670Z,55.5
2018-12-24T00:46:05.220Z,55.4
2018-12-24T00:46:54.712Z,55.5
2018-12-24T00:47:45.630Z,55.4
2018-12-24T00:48:35.401Z,55.4
2018-12-24T00:49:25.160Z,55.4
2018-12-24T00:50:15.228Z,55.4
2018-12-24T00:51:05.025Z,55.4
2018-12-24T00:51:54.795Z,55.4
2018-12-24T00:52:45.639Z,55.4
2018-12-24T00:53:35.440Z,55.4
2018-12-24T00:54:25.513Z,55.4
2018-12-24T00:55:15.360Z,55.4
2018-12-24T00:56:05.615Z,55.4
2018-12-24T00:56:55.960Z,55.4
2018-12-24T00:57:46.267Z,55.4
2018-12-24T00:58:35.517Z,55.4
2018-12-24T00:59:26.132Z,55.4
2018-12-24T01:00:15.912Z,55.4
2018-12-24T01:01:06.262Z,55.4
2018-12-24T01:01:56.134Z,55.3
2018-12-24T01:02:46.082Z,55.3
2018-12-24T01:03:36.662Z,55.3
2018-12-24T01:04:26.515Z,55.3
2018-12-24T01:05:16.248Z,55.3
2018-12-24T01:06:06.302Z,55.3
2018-12-24T01:06:56.079Z,55.3
2018-12-24T01:07:46.190Z,55.3
2018-12-24T01:08:37.097Z,55.3
2018-12-24T01:09:26.644Z,55.3
2018-12-24T01:10:16.962Z,55.3
2018-12-24T01:11:05.931Z,55.3
2018-12-24T01:11:58.045Z,55.3
2018-12-24T01:12:46.189Z,55.3
2018-12-24T01:13:36.276Z,55.3
2018-12-24T01:14:27.162Z,55.3
2018-12-24T01:15:17.264Z,55.3
2018-12-24T01:16:06.994Z,55.3
2018-12-24T01:16:57.391Z,55.2
2018-12-24T01:17:47.096Z,55.2
2018-12-24T01:18:37.203Z,55.2
2018-12-24T01:19:26.976Z,55.2
2018-12-24T01:20:17.356Z,55.2
2018-12-24T01:21:07.053Z,55.2
2018-12-24T01:21:57.673Z,55.2
2018-12-24T01:22:47.163Z,55.2
2018-12-24T01:23:37.466Z,55.2
2018-12-24T01:24:27.298Z,55.2
2018-12-24T01:25:17.910Z,55.1
2018-12-24T01:26:07.940Z,55.1
2018-12-24T01:26:57.735Z,55.1
2018-12-24T01:27:48.113Z,55.1
2018-12-24T01:28:37.565Z,55.1
2018-12-24T01:29:27.345Z,55.1
2018-12-24T01:30:18.265Z,55.1
2018-12-24T01:31:08.300Z,55.1
2018-12-24T01:31:58.073Z,55.1
2018-12-24T01:32:48.392Z,55.1
2018-12-24T01:33:37.645Z,55.1
2018-12-24T01:34:27.685Z,55.1
2018-12-24T01:35:18.568Z,55.1
2018-12-24T01:36:08.327Z,55.1
2018-12-24T01:36:58.172Z,55.1
2018-12-24T01:37:48.719Z,55.1
2018-12-24T01:38:38.650Z,55.1
2018-12-24T01:39:28.588Z,55.1
2018-12-24T01:40:18.639Z,55.1
2018-12-24T01:41:08.449Z,55
2018-12-24T01:41:58.201Z,55
2018-12-24T01:42:49.084Z,55
2018-12-24T01:43:38.834Z,55
2018-12-24T01:44:29.211Z,55
2018-12-24T01:45:18.962Z,55
2018-12-24T01:46:09.344Z,55
2018-12-24T01:46:58.831Z,55
2018-12-24T01:47:49.114Z,54.9
2018-12-24T01:48:39.552Z,54.9
2018-12-24T01:49:29.269Z,54.9
2018-12-24T01:50:19.050Z,54.9
2018-12-24T01:51:08.814Z,54.9
2018-12-24T01:51:59.453Z,54.9
2018-12-24T01:52:49.768Z,54.9
2018-12-24T01:53:40.063Z,54.9
2018-12-24T01:54:29.091Z,54.9
2018-12-24T01:55:19.128Z,54.9
2018-12-24T01:56:09.683Z,54.9
2018-12-24T01:56:59.533Z,54.9
2018-12-24T01:57:49.270Z,54.9
2018-12-24T01:58:39.068Z,54.9
2018-12-24T01:59:29.958Z,54.9
2018-12-24T02:00:20.383Z,54.9
2018-12-24T02:01:10.040Z,54.9
2018-12-24T02:01:59.930Z,54.9
2018-12-24T02:02:49.911Z,54.9
2018-12-24T02:03:40.763Z,54.8
2018-12-24T02:04:29.730Z,54.9
2018-12-24T02:05:20.077Z,54.8
2018-12-24T02:06:10.096Z,54.8
2018-12-24T02:07:00.740Z,54.8
2018-12-24T02:07:50.790Z,54.8
2018-12-24T02:08:40.565Z,54.8
2018-12-24T02:09:30.614Z,54.8
2018-12-24T02:10:20.675Z,54.8
2018-12-24T02:11:10.432Z,54.8
2018-12-24T02:12:01.164Z,54.8
2018-12-24T02:12:50.579Z,54.8
2018-12-24T02:13:40.904Z,54.8
2018-12-24T02:14:30.975Z,54.8
2018-12-24T02:15:20.782Z,54.8
2018-12-24T02:16:11.374Z,54.8
2018-12-24T02:17:01.176Z,54.8
2018-12-24T02:17:50.477Z,54.8
2018-12-24T02:18:40.691Z,54.8
2018-12-24T02:19:31.677Z,54.7
2018-12-24T02:20:21.089Z,54.7
2018-12-24T02:21:11.169Z,54.7
2018-12-24T02:22:01.754Z,54.7
2018-12-24T02:22:51.382Z,54.8
2018-12-24T02:23:41.613Z,54.8
2018-12-24T02:24:31.723Z,54.9
2018-12-24T02:25:21.717Z,55.1
2018-12-24T02:26:12.137Z,55.1
2018-12-24T02:27:01.539Z,55.3
2018-12-24T02:27:51.846Z,55.4
2018-12-24T02:28:42.226Z,55.6
2018-12-24T02:29:32.271Z,55.8
2018-12-24T02:30:22.515Z,56.1
2018-12-24T02:31:12.560Z,56.3
2018-12-24T02:32:02.459Z,56.3
2018-12-24T02:32:52.008Z,56.5
2018-12-24T02:33:42.334Z,56.6
2018-12-24T02:34:32.084Z,56.8
2018-12-24T02:35:22.167Z,56.9
2018-12-24T02:36:12.509Z,57.1
2018-12-24T02:37:02.845Z,57.3
2018-12-24T02:37:52.846Z,57.4
2018-12-24T02:38:42.687Z,57.6
2018-12-24T02:40:22.783Z,57.9
2018-12-24T02:41:13.075Z,58.1
2018-12-24T02:42:02.658Z,58.3
2018-12-24T02:42:56.818Z,58.4
2018-12-24T02:43:42.704Z,58.6
2018-12-24T02:44:33.363Z,58.8
2018-12-24T02:45:22.349Z,59
2018-12-24T02:46:12.582Z,59.2
2018-12-24T02:47:03.521Z,59.4
2018-12-24T02:47:53.563Z,59.6
2018-12-24T02:48:43.086Z,59.7
2018-12-24T02:49:33.650Z,59.8
2018-12-24T02:50:23.769Z,60
2018-12-24T02:51:13.513Z,60.1
2018-12-24T02:52:03.279Z,60.3
2018-12-24T02:52:53.619Z,60.5
2018-12-24T02:53:43.821Z,60.6
2018-12-24T02:54:33.758Z,60.8
2018-12-24T02:55:23.792Z,60.9
2018-12-24T02:56:13.575Z,61.2
2018-12-24T02:57:03.490Z,61.3
2018-12-24T02:57:53.647Z,61.4
2018-12-24T02:58:44.036Z,61.4
2018-12-24T02:59:33.832Z,61.4
2018-12-24T03:00:24.637Z,61.4
2018-12-24T03:01:14.576Z,61.4
2018-12-24T03:02:03.962Z,61.6
2018-12-24T03:02:54.322Z,61.7
2018-12-24T03:03:43.614Z,61.8
2018-12-24T03:04:34.206Z,61.8
2018-12-24T03:05:23.714Z,61.8
2018-12-24T03:06:14.341Z,61.8
2018-12-24T03:07:03.911Z,61.9
2018-12-24T03:07:54.681Z,62.1
2018-12-24T03:08:45.002Z,62.1
2018-12-24T03:09:34.759Z,62.3
2018-12-24T03:10:24.511Z,62.4
2018-12-24T03:11:14.894Z,62.4
2018-12-24T03:12:04.689Z,62.5
2018-12-24T03:13:05.990Z,62.5
2018-12-24T03:13:44.021Z,62.6
2018-12-24T03:14:35.375Z,62.6
2018-12-24T03:15:25.418Z,62.6
2018-12-24T03:16:15.338Z,62.6
2018-12-24T03:17:04.791Z,62.6
2018-12-24T03:17:55.281Z,62.5
2018-12-24T03:18:45.356Z,62.6
2018-12-24T03:19:35.271Z,62.6
2018-12-24T03:20:25.351Z,62.7
2018-12-24T03:21:14.889Z,62.8
2018-12-24T03:22:04.901Z,62.8
2018-12-24T03:22:55.446Z,62.8
2018-12-24T03:23:45.785Z,62.8
2018-12-24T03:24:35.589Z,62.8
2018-12-24T03:25:25.098Z,62.8
2018-12-24T03:26:15.722Z,62.8
2018-12-24T03:27:05.500Z,62.9
2018-12-24T03:27:55.785Z,63
2018-12-24T03:28:46.609Z,63.1
2018-12-24T03:29:36.135Z,63.1
2018-12-24T03:30:26.608Z,63.1
2018-12-24T03:31:16.214Z,63.1
2018-12-24T03:32:06.076Z,63.1
2018-12-24T03:32:56.210Z,63.1
2018-12-24T03:33:46.118Z,63.1
2018-12-24T03:34:36.844Z,63.1
2018-12-24T03:35:26.592Z,63.1
2018-12-24T03:36:16.333Z,63.1
2018-12-24T03:37:06.984Z,63.1
2018-12-24T03:37:56.955Z,63.1
2018-12-24T03:38:46.997Z,63.1
2018-12-24T03:39:36.915Z,63.1
2018-12-24T03:40:26.987Z,63.1
2018-12-24T03:41:17.173Z,63.1
2018-12-24T03:42:06.420Z,63.1
2018-12-24T03:42:57.023Z,63.1
2018-12-24T03:43:47.232Z,63.1
2018-12-24T03:44:37.683Z,63
2018-12-24T03:45:27.477Z,63
2018-12-24T03:46:17.515Z,63
2018-12-24T03:47:07.008Z,63.1
2018-12-24T03:47:57.418Z,63
2018-12-24T03:48:46.292Z,63
2018-12-24T03:49:37.206Z,63
2018-12-24T03:50:26.961Z,63
2018-12-24T03:51:17.370Z,63
2018-12-24T03:52:08.080Z,63
2018-12-24T03:52:57.509Z,63
2018-12-24T03:53:47.791Z,62.9
2018-12-24T03:54:37.831Z,62.9
2018-12-24T03:55:27.887Z,63
2018-12-24T03:56:17.894Z,62.9
2018-12-24T03:57:08.261Z,62.9
2018-12-24T03:57:58.326Z,62.9
2018-12-24T03:58:48.078Z,62.9
2018-12-24T03:59:38.421Z,62.9
2018-12-24T04:00:28.499Z,62.9
2018-12-24T04:01:18.281Z,62.9
2018-12-24T04:02:08.112Z,62.9
2018-12-24T04:02:58.101Z,62.9
2018-12-24T04:03:48.738Z,62.9
2018-12-24T04:04:38.061Z,62.9
2018-12-24T04:05:28.268Z,62.9
2018-12-24T04:06:19.195Z,62.9
2018-12-24T04:07:08.667Z,62.9
2018-12-24T04:07:58.568Z,62.9
2018-12-24T04:08:48.500Z,62.9
2018-12-24T04:09:39.116Z,62.9
2018-12-24T04:10:28.615Z,62.9
2018-12-24T04:11:19.040Z,62.9
2018-12-24T04:12:09.153Z,62.8
2018-12-24T04:12:59.348Z,62.8
2018-12-24T04:13:49.123Z,62.8
2018-12-24T04:14:38.806Z,62.8
2018-12-24T04:15:29.288Z,62.8
2018-12-24T04:16:19.085Z,62.8
2018-12-24T04:17:08.656Z,62.8
2018-12-24T04:17:59.175Z,62.8
2018-12-24T04:18:49.275Z,62.8
2018-12-24T04:19:38.212Z,62.8
2018-12-24T04:20:28.809Z,62.8
2018-12-24T04:21:19.388Z,62.8
2018-12-24T04:22:09.494Z,62.8
2018-12-24T04:22:59.280Z,62.8
2018-12-24T04:23:49.515Z,62.8
2018-12-24T04:24:39.655Z,62.8
2018-12-24T04:25:30.382Z,62.8
2018-12-24T04:26:20.068Z,62.8
2018-12-24T04:27:09.511Z,62.8
2018-12-24T04:27:59.817Z,62.8
2018-12-24T04:28:49.850Z,62.8
2018-12-24T04:29:39.926Z,62.7
2018-12-24T04:30:31.449Z,62.7
2018-12-24T04:31:20.455Z,62.7
2018-12-24T04:32:10.357Z,62.7
2018-12-24T04:33:00.132Z,62.7
2018-12-24T04:33:50.862Z,62.7
2018-12-24T04:34:40.554Z,62.7
2018-12-24T04:35:30.969Z,62.7
2018-12-24T04:36:20.357Z,62.7
2018-12-24T04:37:10.168Z,62.7
2018-12-24T04:38:00.496Z,62.6
2018-12-24T04:38:51.155Z,62.6
2018-12-24T04:39:41.165Z,62.6
2018-12-24T04:40:30.959Z,62.6
2018-12-24T04:41:21.307Z,62.6
2018-12-24T04:42:10.501Z,62.6
2018-12-24T04:43:00.570Z,62.6
2018-12-24T04:43:50.920Z,62.6
2018-12-24T04:44:41.530Z,62.6
2018-12-24T05:02:01.589Z,62.4
2018-12-24T05:02:51.360Z,62.4
2018-12-24T05:03:41.153Z,62.4
2018-12-24T05:04:30.646Z,62.4
2018-12-24T05:05:20.721Z,62.4
2018-12-24T05:06:11.349Z,62.4
2018-12-24T05:07:02.087Z,62.4
2018-12-24T05:07:51.624Z,62.4
2018-12-24T05:08:41.674Z,62.4
2018-12-24T05:09:31.449Z,62.4
2018-12-24T05:10:21.622Z,62.4
2018-12-24T05:11:11.544Z,62.4
2018-12-24T05:12:02.162Z,62.4
2018-12-24T05:12:52.511Z,62.4
2018-12-24T05:13:45.066Z,62.4
2018-12-24T05:14:32.449Z,62.4
2018-12-24T05:15:22.506Z,62.3
2018-12-24T05:16:12.446Z,62.3
2018-12-24T05:17:03.071Z,62.3
2018-12-24T05:17:52.287Z,62.3
2018-12-24T05:18:42.626Z,62.3
2018-12-24T05:19:32.401Z,62.3
2018-12-24T05:20:23.008Z,62.3
2018-12-24T05:21:12.806Z,62.3
2018-12-24T05:22:02.833Z,62.3
2018-12-24T05:22:52.631Z,62.3
2018-12-24T05:23:42.960Z,62.3
2018-12-24T05:24:33.003Z,62.3
2018-12-24T05:25:23.188Z,62.3
2018-12-24T05:26:13.126Z,62.3
2018-12-24T05:27:03.203Z,62.3
2018-12-24T05:27:52.683Z,62.3
2018-12-24T05:28:43.444Z,62.3
2018-12-24T05:29:33.360Z,62.3
2018-12-24T05:30:23.407Z,62.3
2018-12-24T05:31:13.508Z,62.2
2018-12-24T05:32:03.223Z,62.2
2018-12-24T05:32:53.320Z,62.2
2018-12-24T05:33:43.657Z,62.2
2018-12-24T05:34:33.709Z,62.2
2018-12-24T05:35:22.923Z,62.2
2018-12-24T05:36:13.365Z,62.2
2018-12-24T05:37:04.146Z,62.2
2018-12-24T05:37:53.900Z,62.2
2018-12-24T05:38:43.433Z,62.1
2018-12-24T05:39:33.472Z,62.1
2018-12-24T05:40:23.532Z,62.1
2018-12-24T05:41:14.132Z,62.1
2018-12-24T05:42:03.937Z,62.1
2018-12-24T05:42:53.678Z,62.1
2018-12-24T05:43:52.117Z,62.1
2018-12-24T05:44:34.100Z,62.1
2018-12-24T05:45:24.452Z,62.1
2018-12-24T05:46:14.255Z,62.1
2018-12-24T05:47:04.280Z,62.1
2018-12-24T05:47:54.887Z,62.1
2018-12-24T05:48:44.761Z,62.1
2018-12-24T05:49:35.022Z,62.1
2018-12-24T05:50:25.365Z,62.1
2018-12-24T05:51:14.820Z,62.1
2018-12-24T05:52:04.531Z,62.1
2018-12-24T05:52:54.959Z,62.1
2018-12-24T05:53:45.007Z,62
2018-12-24T05:54:35.077Z,62
2018-12-24T05:55:25.384Z,62
2018-12-24T05:56:15.434Z,62
2018-12-24T05:57:05.511Z,62
2018-12-24T05:57:55.597Z,62
2018-12-24T05:58:45.612Z,62
2018-12-24T05:59:35.117Z,62
2018-12-24T06:00:25.736Z,62
2018-12-24T06:01:15.501Z,61.9
2018-12-24T06:02:05.564Z,61.9
2018-12-24T06:02:56.253Z,61.9
2018-12-24T06:03:45.939Z,61.9
2018-12-24T06:04:35.834Z,61.9
2018-12-24T06:05:25.793Z,61.9
2018-12-24T06:06:15.849Z,61.9
2018-12-24T06:07:06.175Z,61.9
2018-12-24T06:07:55.966Z,61.9
2018-12-24T06:08:46.005Z,61.9
2018-12-24T06:09:35.776Z,61.9
2018-12-24T06:10:25.869Z,61.9
2018-12-24T06:11:16.176Z,61.9
2018-12-24T06:12:06.526Z,61.9
2018-12-24T06:12:56.549Z,61.9
2018-12-24T06:13:46.626Z,61.9
2018-12-24T06:14:36.666Z,61.8
2018-12-24T06:15:26.265Z,61.9
2018-12-24T06:16:16.154Z,61.8
2018-12-24T06:17:06.096Z,61.8
2018-12-24T06:17:59.066Z,61.8
2018-12-24T06:18:47.213Z,61.8
2018-12-24T06:19:36.818Z,61.8
2018-12-24T06:20:26.536Z,61.8
2018-12-24T06:21:16.030Z,61.8
2018-12-24T06:22:06.638Z,61.8
2018-12-24T06:22:57.093Z,61.8
2018-12-24T06:23:47.083Z,61.8
2018-12-24T06:24:36.800Z,61.8
2018-12-24T06:25:27.445Z,61.8
2018-12-24T06:26:17.181Z,61.8
2018-12-24T06:27:07.243Z,61.8
2018-12-24T06:27:57.045Z,61.8
2018-12-24T06:28:46.873Z,61.8
2018-12-24T06:29:37.695Z,61.7
2018-12-24T06:30:27.760Z,61.7
2018-12-24T06:31:17.072Z,61.7
2018-12-24T06:32:07.340Z,61.7
2018-12-24T06:32:57.655Z,61.7
2018-12-24T06:33:47.825Z,61.7
2018-12-24T06:34:37.000Z,61.7
2018-12-24T06:35:28.084Z,61.7
2018-12-24T06:36:17.589Z,61.6
2018-12-24T06:37:08.310Z,61.6
2018-12-24T06:37:58.267Z,61.6
2018-12-24T06:38:48.594Z,61.6
2018-12-24T06:39:37.815Z,61.6
2018-12-24T06:40:27.882Z,61.6
2018-12-24T06:41:18.205Z,61.6
2018-12-24T06:42:08.489Z,61.6
2018-12-24T06:42:58.147Z,61.6
2018-12-24T06:43:48.899Z,61.6
2018-12-24T06:44:38.716Z,61.6
2018-12-24T06:45:28.219Z,61.6
2018-12-24T06:46:17.509Z,61.6
2018-12-24T06:47:08.137Z,61.6
2018-12-24T06:47:58.400Z,61.6
2018-12-24T06:48:48.997Z,61.6
2018-12-24T06:49:38.862Z,61.6
2018-12-24T06:50:28.819Z,61.5
2018-12-24T06:51:19.267Z,61.5
2018-12-24T06:52:08.924Z,61.5
2018-12-24T06:52:58.984Z,61.5
2018-12-24T06:53:48.238Z,61.5
2018-12-24T06:54:38.844Z,61.5
2018-12-24T06:55:28.874Z,61.5
2018-12-24T06:56:18.931Z,61.5
2018-12-24T06:57:08.994Z,61.5
2018-12-24T06:57:59.336Z,61.5
2018-12-24T06:58:49.661Z,61.4
2018-12-24T06:59:40.098Z,61.4
2018-12-24T07:00:29.795Z,61.4
2018-12-24T07:01:19.114Z,61.4
2018-12-24T07:02:09.330Z,61.4
2018-12-24T07:02:58.858Z,61.4
2018-12-24T07:03:48.894Z,61.4
2018-12-24T07:04:39.772Z,61.4
2018-12-24T07:05:30.172Z,61.4
2018-12-24T07:06:19.732Z,61.4
2018-12-24T07:07:09.407Z,61.4
2018-12-24T07:07:59.757Z,61.4
2018-12-24T07:08:50.329Z,61.4
2018-12-24T07:09:40.124Z,61.4
2018-12-24T07:10:30.427Z,61.4
2018-12-24T07:11:19.958Z,61.3
2018-12-24T07:12:10.291Z,61.3
2018-12-24T07:12:59.799Z,61.3
2018-12-24T07:13:50.119Z,61.3
2018-12-24T07:14:40.994Z,61.3
2018-12-24T07:15:30.254Z,61.3
2018-12-24T07:16:20.556Z,61.3
2018-12-24T07:17:10.893Z,61.3
2018-12-24T07:18:00.512Z,61.3
2018-12-24T07:18:50.758Z,61.3
2018-12-24T07:19:41.104Z,61.3
2018-12-24T07:20:30.056Z,61.3
2018-12-24T07:21:20.901Z,61.3
2018-12-24T07:22:10.714Z,61.3
2018-12-24T07:23:00.443Z,61.3
2018-12-24T07:23:51.075Z,61.3
2018-12-24T07:24:41.158Z,61.3
2018-12-24T07:25:30.918Z,61.2
2018-12-24T07:26:21.368Z,61.2
2018-12-24T07:27:11.303Z,61.2
2018-12-24T07:28:01.882Z,61.2
2018-12-24T07:28:59.478Z,61.2
2018-12-24T07:29:40.905Z,61.2
2018-12-24T07:30:31.255Z,61.2
2018-12-24T07:31:22.520Z,61.2
2018-12-24T07:32:11.948Z,61.2
2018-12-24T07:33:02.144Z,61.2
2018-12-24T07:33:52.043Z,61.1
2018-12-24T07:34:42.315Z,61.1
2018-12-24T07:35:32.260Z,61.1
2018-12-24T07:36:22.029Z,61.1
2018-12-24T07:37:12.248Z,61.1
2018-12-24T07:38:04.115Z,61.1
2018-12-24T07:38:51.569Z,61.1
2018-12-24T07:39:42.437Z,61.1
2018-12-24T07:40:32.174Z,61.1
2018-12-24T07:41:21.692Z,61.1
2018-12-24T07:42:12.588Z,61.1
2018-12-24T07:43:02.382Z,61.1
2018-12-24T07:43:52.437Z,61.1
2018-12-24T07:44:42.454Z,61.1
2018-12-24T07:45:32.864Z,61.1
2018-12-24T07:46:22.939Z,61
2018-12-24T07:47:12.382Z,61
2018-12-24T07:48:02.494Z,61
2018-12-24T07:48:52.772Z,61
2018-12-24T07:49:42.825Z,61
2018-12-24T07:50:33.467Z,61
2018-12-24T07:51:22.519Z,61
2018-12-24T07:52:11.994Z,61
2018-12-24T07:53:02.572Z,61
2018-12-24T07:53:53.112Z,60.9
2018-12-24T07:54:43.161Z,60.9
2018-12-24T07:55:33.561Z,60.9
2018-12-24T07:56:23.009Z,60.9
2018-12-24T07:57:13.347Z,60.9
2018-12-24T07:58:03.401Z,60.9
2018-12-24T07:58:53.748Z,60.9
2018-12-24T07:59:43.498Z,60.9
2018-12-24T08:00:33.563Z,60.9
2018-12-24T08:01:23.991Z,60.9
2018-12-24T08:02:13.686Z,60.9
2018-12-24T08:03:03.466Z,60.9
2018-12-24T08:03:53.895Z,60.9
2018-12-24T08:04:43.961Z,60.9
2018-12-24T08:05:33.633Z,60.9
2018-12-24T08:06:24.018Z,60.8
2018-12-24T08:07:14.041Z,60.8
2018-12-24T08:08:03.319Z,60.9
2018-12-24T08:08:53.850Z,60.8
2018-12-24T08:09:43.748Z,60.8
2018-12-24T08:10:34.517Z,60.8
2018-12-24T08:11:23.762Z,60.8
2018-12-24T08:12:16.490Z,60.8
2018-12-24T08:13:04.705Z,60.8
2018-12-24T08:13:54.768Z,60.8
2018-12-24T08:14:44.805Z,60.8
2018-12-24T08:15:34.587Z,60.8
2018-12-24T08:16:24.932Z,60.8
2018-12-24T08:17:14.419Z,60.8
2018-12-24T08:18:05.034Z,60.8
2018-12-24T08:18:54.529Z,60.8
2018-12-24T08:19:43.722Z,60.8
2018-12-24T08:20:34.972Z,60.8
2018-12-24T08:21:24.690Z,60.8
2018-12-24T08:22:14.772Z,60.8
2018-12-24T08:23:04.816Z,60.7
2018-12-24T08:23:54.857Z,60.7
2018-12-24T08:24:44.657Z,60.7
2018-12-24T08:25:35.331Z,60.7
2018-12-24T08:26:25.321Z,60.7
2018-12-24T08:27:15.387Z,60.7
2018-12-24T08:28:05.435Z,60.7
2018-12-24T08:28:55.763Z,60.6
2018-12-24T08:29:45.843Z,60.7
2018-12-24T08:30:35.046Z,60.7
2018-12-24T08:31:25.686Z,60.6
2018-12-24T08:32:15.886Z,60.6
2018-12-24T08:33:05.782Z,60.6
2018-12-24T08:33:55.448Z,60.6
2018-12-24T08:34:45.885Z,60.6
2018-12-24T08:35:36.517Z,60.6
2018-12-24T08:36:26.096Z,60.6
2018-12-24T08:37:15.836Z,60.6
2018-12-24T08:38:05.851Z,60.6
2018-12-24T08:38:56.186Z,60.6
2018-12-24T08:39:46.507Z,60.6
2018-12-24T08:40:36.280Z,60.6
2018-12-24T08:41:26.315Z,60.6
2018-12-24T08:42:16.124Z,60.6
2018-12-24T08:43:06.731Z,60.6
2018-12-24T08:43:55.945Z,60.5
2018-12-24T08:44:46.508Z,60.6
2018-12-24T08:45:36.358Z,60.5
2018-12-24T08:46:26.210Z,60.5
2018-12-24T08:47:17.105Z,60.5
2018-12-24T08:48:06.394Z,60.5
2018-12-24T08:48:56.828Z,60.5
2018-12-24T08:49:46.899Z,60.5
2018-12-24T08:50:36.663Z,60.4
2018-12-24T08:51:27.386Z,60.4
2018-12-24T08:52:17.074Z,60.4
2018-12-24T08:53:07.175Z,60.4
2018-12-24T08:53:56.913Z,60.4
2018-12-24T08:54:46.980Z,60.4
2018-12-24T08:55:38.161Z,60.4
2018-12-24T08:56:29.464Z,60.4
2018-12-24T08:57:17.704Z,60.4
2018-12-24T08:58:07.466Z,60.4
2018-12-24T08:58:57.251Z,60.4
2018-12-24T08:59:47.309Z,60.4
2018-12-24T09:00:37.933Z,60.4
2018-12-24T09:16:29.663Z,60.3
2018-12-24T09:17:19.475Z,60.3
2018-12-24T09:18:09.820Z,60.3
2018-12-24T09:18:59.585Z,60.3
2018-12-24T09:19:49.634Z,60.3
2018-12-24T09:20:39.718Z,60.2
2018-12-24T09:21:29.768Z,60.2
2018-12-24T09:22:19.826Z,60.2
2018-12-24T09:23:09.845Z,60.2
2018-12-24T09:24:00.157Z,60.2
2018-12-24T09:24:49.687Z,60.2
2018-12-24T09:25:39.745Z,60.2
2018-12-24T09:26:30.040Z,60.2
2018-12-24T09:27:19.857Z,60.2
2018-12-24T09:28:09.917Z,60.1
2018-12-24T09:29:00.980Z,60.1
2018-12-24T09:29:49.856Z,60.1
2018-12-24T09:30:40.749Z,60.1
2018-12-24T09:31:30.442Z,60.1
2018-12-24T09:32:19.967Z,60.1
2018-12-24T09:33:10.534Z,60.1
2018-12-24T09:34:00.025Z,60.1
2018-12-24T09:34:50.092Z,60.1
2018-12-24T09:35:40.828Z,60.1
2018-12-24T09:36:30.284Z,60.1
2018-12-24T09:37:21.104Z,60.1
2018-12-24T09:38:11.291Z,60.1
2018-12-24T09:39:00.939Z,60.1
2018-12-24T09:39:50.709Z,60.1
2018-12-24T09:40:40.775Z,60.1
2018-12-24T09:41:31.494Z,60.1
2018-12-24T09:42:21.750Z,60
2018-12-24T09:43:11.235Z,60.1
2018-12-24T09:44:01.048Z,60
2018-12-24T09:44:59.860Z,60
2018-12-24T09:45:41.473Z,60
2018-12-24T09:46:31.165Z,60
2018-12-24T09:47:21.545Z,60
2018-12-24T09:48:11.545Z,60
2018-12-24T09:49:00.863Z,60
2018-12-24T09:49:51.681Z,60
2018-12-24T09:50:41.981Z,59.9
2018-12-24T09:51:31.595Z,59.9
2018-12-24T09:52:21.857Z,59.9
2018-12-24T09:53:12.190Z,59.9
2018-12-24T09:54:01.972Z,59.9
2018-12-24T09:54:52.043Z,59.9
2018-12-24T09:55:42.142Z,59.9
2018-12-24T09:56:32.147Z,59.9
2018-12-24T09:57:22.464Z,59.9
2018-12-24T09:58:12.247Z,59.9
2018-12-24T09:59:02.595Z,59.9
2018-12-24T09:59:52.477Z,59.9
2018-12-24T10:00:42.447Z,59.9
2018-12-24T10:01:32.604Z,59.9
2018-12-24T10:02:21.717Z,59.9
2018-12-24T10:03:12.974Z,59.9
2018-12-24T10:04:07.470Z,59.9
2018-12-24T10:04:52.224Z,59.9
2018-12-24T10:05:43.076Z,59.8
2018-12-24T10:06:32.814Z,59.8
2018-12-24T10:07:22.884Z,59.8
2018-12-24T10:08:12.154Z,59.8
2018-12-24T10:09:02.709Z,59.8
2018-12-24T10:09:53.051Z,59.8
2018-12-24T10:10:43.184Z,59.8
2018-12-24T10:11:32.951Z,59.8
2018-12-24T10:12:23.521Z,59.8
2018-12-24T10:13:13.261Z,59.8
2018-12-24T10:14:03.617Z,59.8
2018-12-24T10:14:53.393Z,59.8
2018-12-24T10:15:45.676Z,59.8
2018-12-24T10:16:33.508Z,59.8
2018-12-24T10:17:23.626Z,59.8
2018-12-24T10:18:13.611Z,59.8
2018-12-24T10:19:03.678Z,59.8
2018-12-24T10:19:53.988Z,59.8
2018-12-24T10:20:43.513Z,59.8
2018-12-24T10:21:34.223Z,59.8
2018-12-24T10:22:23.880Z,59.7
2018-12-24T10:23:14.334Z,59.7
2018-12-24T10:24:04.050Z,59.7
2018-12-24T10:24:54.063Z,59.7
2018-12-24T10:25:44.380Z,59.7
2018-12-24T10:26:33.980Z,59.7
2018-12-24T10:27:24.505Z,59.7
2018-12-24T10:28:14.390Z,59.6
2018-12-24T10:29:04.075Z,59.7
2018-12-24T10:29:54.418Z,59.6
2018-12-24T10:30:44.420Z,59.6
2018-12-24T10:31:34.800Z,59.6
2018-12-24T10:32:24.270Z,59.6
2018-12-24T10:33:15.427Z,59.6
2018-12-24T10:34:04.964Z,59.6
2018-12-24T10:34:54.280Z,59.6
2018-12-24T10:35:44.867Z,59.6
2018-12-24T10:36:34.700Z,59.6
2018-12-24T10:37:24.690Z,59.6
2018-12-24T10:38:15.970Z,59.6
2018-12-24T10:39:05.292Z,59.6
2018-12-24T10:39:54.597Z,59.6
2018-12-24T10:40:44.847Z,59.5
2018-12-24T10:41:35.603Z,59.6
2018-12-24T10:42:25.269Z,59.6
2018-12-24T10:43:14.736Z,59.5
2018-12-24T10:44:05.364Z,59.6
2018-12-24T10:44:55.451Z,59.5
2018-12-24T10:45:45.200Z,59.5
2018-12-24T10:46:34.779Z,59.5
2018-12-24T10:47:24.726Z,59.5
2018-12-24T10:48:15.919Z,59.5
2018-12-24T10:49:05.748Z,59.4
2018-12-24T10:49:55.198Z,59.4
2018-12-24T10:50:45.801Z,59.4
2018-12-24T10:51:35.591Z,59.4
2018-12-24T10:52:25.654Z,59.4
2018-12-24T10:53:15.134Z,59.4
2018-12-24T10:54:05.001Z,59.4
2018-12-24T10:54:55.320Z,59.4
2018-12-24T10:55:45.923Z,59.4
2018-12-24T10:56:35.651Z,59.4
2018-12-24T10:57:26.085Z,59.4
2018-12-24T10:58:16.105Z,59.4
2018-12-24T10:59:06.598Z,59.4
2018-12-24T10:59:56.225Z,59.4
2018-12-24T11:00:45.185Z,59.4
2018-12-24T11:01:36.353Z,59.3
2018-12-24T11:02:26.681Z,59.4
2018-12-24T11:03:16.183Z,59.3
2018-12-24T11:04:06.303Z,59.3
2018-12-24T11:04:56.525Z,59.3
2018-12-24T11:05:46.622Z,59.3
2018-12-24T11:06:36.138Z,59.3
2018-12-24T11:07:26.743Z,59.3
2018-12-24T11:08:15.685Z,59.3
2018-12-24T11:09:06.560Z,59.3
2018-12-24T11:09:56.914Z,59.3
2018-12-24T11:10:49.197Z,59.3
2018-12-24T11:11:36.734Z,59.3
2018-12-24T11:12:27.083Z,59.3
2018-12-24T11:13:17.183Z,59.3
2018-12-24T11:14:06.907Z,59.3
2018-12-24T11:14:56.382Z,59.3
2018-12-24T11:15:47.007Z,59.3
2018-12-24T11:16:37.345Z,59.2
2018-12-24T11:17:27.397Z,59.2
2018-12-24T11:18:16.984Z,59.2
2018-12-24T11:19:07.267Z,59.2
2018-12-24T11:19:58.444Z,59.2
2018-12-24T11:20:47.354Z,59.2
2018-12-24T11:21:36.595Z,59.2
2018-12-24T11:22:27.476Z,59.2
2018-12-24T11:23:17.674Z,59.2
2018-12-24T11:24:07.381Z,59.1
2018-12-24T11:24:57.937Z,59.2
2018-12-24T11:25:47.689Z,59.1
2018-12-24T11:26:37.739Z,59.1
2018-12-24T11:27:27.539Z,59.1
2018-12-24T11:28:18.452Z,59.1
2018-12-24T11:29:08.198Z,59.1
2018-12-24T11:29:58.559Z,59.1
2018-12-24T11:30:47.756Z,59.1
2018-12-24T11:31:38.115Z,59.1
2018-12-24T11:32:27.703Z,59.1
2018-12-24T11:33:18.556Z,59.1
2018-12-24T11:34:08.271Z,59.1
2018-12-24T11:34:58.680Z,59.1
2018-12-24T11:35:48.406Z,59.1
2018-12-24T11:36:38.460Z,59.1
2018-12-24T11:37:28.985Z,59.1
2018-12-24T11:38:18.286Z,59.1
2018-12-24T11:39:08.590Z,59.1
2018-12-24T11:39:58.128Z,59.1
2018-12-24T11:40:49.268Z,59.1
2018-12-24T11:41:38.790Z,59
2018-12-24T11:42:30.966Z,59
2018-12-24T11:43:18.713Z,59
2018-12-24T11:44:09.162Z,59
2018-12-24T11:44:58.730Z,59
2018-12-24T11:45:48.837Z,59
2018-12-24T11:46:39.895Z,59
2018-12-24T11:47:30.008Z,59
2018-12-24T11:48:19.338Z,58.9
2018-12-24T11:49:09.537Z,58.9
2018-12-24T11:49:59.347Z,58.9
2018-12-24T11:50:49.422Z,58.9
2018-12-24T11:51:39.387Z,58.9
2018-12-24T11:52:29.627Z,58.9
2018-12-24T11:53:20.322Z,58.9
2018-12-24T11:54:10.159Z,58.9
2018-12-24T11:55:00.177Z,58.9
2018-12-24T11:55:49.794Z,58.9
2018-12-24T11:56:40.092Z,58.9
2018-12-24T11:57:30.459Z,58.9
2018-12-24T11:58:21.649Z,58.9
2018-12-24T11:59:09.748Z,58.9